createdAt,value
2022-08-07T00:01:00.870Z,18.11
2022-08-07T00:07:09.389Z,17.98
2022-08-07T00:13:00.962Z,17.86
2022-08-07T00:18:48.657Z,17.88
2022-08-07T00:24:35.576Z,17.72
2022-08-07T00:30:27.340Z,17.66
2022-08-07T00:36:16.817Z,17.48
2022-08-07T00:42:05.478Z,17.50
2022-08-07T00:48:08.104Z,17.58
2022-08-07T00:53:58.231Z,17.69
2022-08-07T00:59:45.419Z,17.58
2022-08-07T01:05:36.556Z,17.57
2022-08-07T01:12:09.454Z,17.52
2022-08-07T01:17:34.191Z,17.60
2022-08-07T01:23:35.413Z,17.45
2022-08-07T01:29:31.454Z,17.50
2022-08-07T01:35:24.505Z,17.44
2022-08-07T01:41:14.210Z,17.42
2022-08-07T01:48:19.786Z,17.38
2022-08-07T01:54:08.510Z,17.31
2022-08-07T01:59:50.787Z,17.27
2022-08-07T02:05:59.664Z,17.32
2022-08-07T02:12:04.833Z,17.22
2022-08-07T02:17:59.890Z,17.22
2022-08-07T02:23:49.183Z,16.95
2022-08-07T02:29:48.734Z,17.10
2022-08-07T02:36:29.499Z,17.13
2022-08-07T02:41:54.460Z,17.04
2022-08-07T02:47:45.434Z,16.91
2022-08-07T02:53:39.877Z,16.87
2022-08-07T02:59:32.494Z,16.83
2022-08-07T03:05:24.647Z,16.71
2022-08-07T03:11:13.946Z,16.65
2022-08-07T03:17:05.382Z,16.47
2022-08-07T03:22:58.725Z,16.52
2022-08-07T03:28:47.583Z,16.34
2022-08-07T03:34:47.142Z,16.27
2022-08-07T03:40:53.917Z,16.15
2022-08-07T03:47:11.256Z,16.14
2022-08-07T03:52:53.273Z,16.06
2022-08-07T03:59:08.301Z,16.02
2022-08-07T04:04:49.549Z,15.92
2022-08-07T04:10:38.636Z,15.82
2022-08-07T04:16:31.473Z,15.83
2022-08-07T04:22:27.374Z,15.89
2022-08-07T04:28:15.175Z,15.67
2022-08-07T04:34:02.936Z,15.60
2022-08-07T04:39:50.226Z,15.68
2022-08-07T04:46:01.653Z,15.59
2022-08-07T04:52:20.040Z,15.46
2022-08-07T04:58:33.629Z,15.38
2022-08-07T05:04:43.869Z,15.42
2022-08-07T05:10:49.035Z,15.37
2022-08-07T05:16:44.021Z,15.36
2022-08-07T05:22:36.249Z,16.19
2022-08-07T05:28:37.060Z,17.95
2022-08-07T05:34:30.230Z,19.33
2022-08-07T05:40:20.635Z,20.41
2022-08-07T05:46:08.604Z,21.37
2022-08-07T05:51:55.722Z,21.85
2022-08-07T05:57:46.513Z,20.38
2022-08-07T06:03:53.748Z,19.40
2022-08-07T06:10:05.048Z,18.72
2022-08-07T06:15:55.565Z,18.31
2022-08-07T06:22:15.936Z,18.11
2022-08-07T06:28:04.531Z,18.12
2022-08-07T06:33:55.265Z,18.09
2022-08-07T06:40:13.051Z,18.12
2022-08-07T06:45:50.891Z,18.31
2022-08-07T06:51:49.585Z,18.47
2022-08-07T06:57:48.334Z,18.33
2022-08-07T07:03:48.141Z,18.17
2022-08-07T07:09:38.350Z,18.28
2022-08-07T07:15:36.114Z,18.37
2022-08-07T07:22:04.257Z,18.75
2022-08-07T07:27:56.140Z,18.90
2022-08-07T07:33:57.105Z,19.14
2022-08-07T07:39:54.994Z,19.22
2022-08-07T07:46:36.665Z,19.29
2022-08-07T07:51:58.139Z,19.48
2022-08-07T07:57:53.618Z,20.29
2022-08-07T08:04:10.121Z,21.32
2022-08-07T08:09:52.141Z,21.80
2022-08-07T08:15:58.651Z,22.24
2022-08-07T08:22:08.113Z,23.21
2022-08-07T08:28:03.684Z,24.04
2022-08-07T08:33:55.433Z,24.65
2022-08-07T08:39:54.890Z,24.76
2022-08-07T08:46:04.010Z,25.06
2022-08-07T08:52:13.695Z,25.20
2022-08-07T08:58:24.844Z,25.92
2022-08-07T09:04:30.224Z,25.88
2022-08-07T09:10:35.308Z,25.77
2022-08-07T09:16:49.608Z,25.48
2022-08-07T09:24:31.771Z,25.10
2022-08-07T09:30:04.373Z,25.68
2022-08-07T09:36:05.469Z,26.48
2022-08-07T09:42:05.866Z,26.72
2022-08-07T09:48:20.529Z,26.78
2022-08-07T09:54:17.745Z,27.18
2022-08-07T10:00:14.759Z,27.24
2022-08-07T10:06:17.379Z,27.92
2022-08-07T10:12:26.389Z,28.29
2022-08-07T10:18:41.380Z,28.65
2022-08-07T10:25:03.308Z,28.30
2022-08-07T10:31:14.910Z,28.35
2022-08-07T10:37:12.710Z,28.88
2022-08-07T10:43:02.413Z,28.47
2022-08-07T10:49:16.891Z,28.27
2022-08-07T10:55:26.566Z,28.11
2022-08-07T11:01:35.702Z,28.49
2022-08-07T11:08:16.447Z,29.45
2022-08-07T11:14:44.639Z,29.89
2022-08-07T11:20:41.390Z,30.02
2022-08-07T11:26:48.072Z,30.24
2022-08-07T11:32:43.865Z,30.26
2022-08-07T11:38:50.587Z,29.90
2022-08-07T11:44:59.689Z,29.81
2022-08-07T11:51:40.673Z,29.17
2022-08-07T11:58:16.423Z,28.46
2022-08-07T12:04:30.615Z,28.04
2022-08-07T12:10:41.918Z,28.61
2022-08-07T12:16:42.718Z,28.58
2022-08-07T12:23:14.516Z,28.68
2022-08-07T12:29:37.954Z,28.23
2022-08-07T12:35:31.120Z,28.02
2022-08-07T12:41:42.679Z,28.55
2022-08-07T12:47:43.937Z,28.89
2022-08-07T12:54:03.078Z,28.54
2022-08-07T13:00:16.476Z,28.58
2022-08-07T13:06:27.870Z,29.00
2022-08-07T13:12:37.222Z,28.86
2022-08-07T13:18:28.405Z,28.32
2022-08-07T13:24:53.997Z,27.99
2022-08-07T13:30:48.876Z,27.96
2022-08-07T13:36:53.699Z,28.20
2022-08-07T13:42:45.627Z,27.61
2022-08-07T13:48:35.046Z,27.71
2022-08-07T13:54:33.592Z,27.38
2022-08-07T14:00:26.909Z,26.93
2022-08-07T14:06:15.026Z,27.68
2022-08-07T14:12:07.333Z,28.02
2022-08-07T14:18:24.081Z,27.67
2022-08-07T14:24:33.267Z,27.97
2022-08-07T14:30:32.624Z,28.09
2022-08-07T14:36:22.863Z,27.44
2022-08-07T14:42:22.473Z,27.39
2022-08-07T14:48:22.102Z,27.60
2022-08-07T14:54:32.884Z,27.41
2022-08-07T15:00:30.892Z,27.32
2022-08-07T15:06:23.254Z,27.98
2022-08-07T15:18:41.842Z,27.31
2022-08-07T15:30:59.532Z,27.90
2022-08-07T15:37:02.896Z,27.94
2022-08-07T15:50:05.555Z,26.85
2022-08-07T15:56:01.945Z,26.57
2022-08-07T16:02:02.077Z,26.83
2022-08-07T16:08:33.648Z,26.49
2022-08-07T16:14:12.982Z,26.69
2022-08-07T16:20:34.043Z,26.66
2022-08-07T16:26:30.899Z,26.62
2022-08-07T16:32:35.890Z,27.12
2022-08-07T16:39:00.995Z,27.24
2022-08-07T16:45:15.556Z,26.76
2022-08-07T16:52:01.453Z,26.55
2022-08-07T16:58:03.949Z,26.57
2022-08-07T17:04:07.620Z,26.64
2022-08-07T17:10:32.242Z,26.24
2022-08-07T17:16:55.965Z,26.30
2022-08-07T17:23:32.565Z,26.38
2022-08-07T17:30:15.024Z,26.37
2022-08-07T17:36:00.912Z,26.21
2022-08-07T17:42:06.707Z,26.43
2022-08-07T17:48:13.168Z,25.91
2022-08-07T17:54:14.090Z,25.78
2022-08-07T18:00:32.728Z,26.01
2022-08-07T18:06:36.697Z,25.97
2022-08-07T18:12:48.196Z,25.87
2022-08-07T18:21:08.596Z,25.70
2022-08-07T18:25:19.189Z,25.47
2022-08-07T18:32:04.255Z,25.44
2022-08-07T18:38:55.561Z,25.39
2022-08-07T18:45:40.188Z,25.25
2022-08-07T18:52:37.862Z,25.12
2022-08-07T18:57:58.706Z,25.16
2022-08-07T19:04:14.459Z,25.01
2022-08-07T19:10:51.776Z,24.87
2022-08-07T19:17:09.305Z,24.73
2022-08-07T19:23:21.190Z,24.60
2022-08-07T19:31:02.942Z,24.59
2022-08-07T19:35:49.323Z,24.39
2022-08-07T19:42:05.941Z,24.38
2022-08-07T19:47:56.200Z,24.16
2022-08-07T19:54:34.783Z,24.09
2022-08-07T20:14:54.171Z,23.62
2022-08-07T20:20:46.178Z,23.60
2022-08-07T20:26:44.786Z,23.79
2022-08-07T20:32:40.366Z,23.75
2022-08-07T20:38:30.809Z,23.74
2022-08-07T20:44:20.467Z,23.64
2022-08-07T20:50:11.128Z,23.63
2022-08-07T20:56:03.588Z,23.66
2022-08-07T21:01:55.275Z,23.58
2022-08-07T21:07:49.953Z,23.43
2022-08-07T21:13:57.635Z,23.43
2022-08-07T21:20:00.642Z,23.36
2022-08-07T21:26:12.162Z,23.23
2022-08-07T21:32:47.459Z,23.03
2022-08-07T21:38:55.406Z,22.88
2022-08-07T21:44:51.313Z,22.62
2022-08-07T21:51:12.415Z,22.39
2022-08-07T21:58:05.287Z,22.24
2022-08-07T22:04:04.176Z,22.03
2022-08-07T22:10:04.093Z,22.07
2022-08-07T22:16:44.088Z,22.06
2022-08-07T22:22:52.532Z,21.94
2022-08-07T22:29:34.070Z,21.94
2022-08-07T22:36:11.834Z,21.30
2022-08-07T22:42:26.162Z,20.96
2022-08-07T22:49:02.237Z,20.19
2022-08-07T22:55:22.987Z,20.45
2022-08-07T23:01:49.556Z,20.99
2022-08-07T23:10:05.219Z,20.61
2022-08-07T23:16:48.348Z,20.34
2022-08-07T23:22:53.932Z,20.34
2022-08-07T23:29:17.037Z,20.10
2022-08-07T23:43:51.254Z,19.81
2022-08-07T23:50:11.888Z,19.79
2022-08-07T23:56:54.210Z,19.74
